Time;durP1;ratioP1;P1;durP2;ratioP2;P2;SDS_P1;SDS_P2;PMS_P1;PMS_P2;Temp;Humidity;BMP_temperature;BMP_pressure;BME280_temperature;BME280_humidity;BME280_pressure;Samples;Min_cycle;Max_cycle;Signal;HPM_P1;HPM_P2
2022/01/22 00:02:05;;;;;;;5.85;2.10;;;;;;;2.87;53.12;98586.13;4410252;32;20455;-78
2022/01/22 00:04:35;;;;;;;4.97;1.98;;;;;;;3.21;52.35;98578.38;4410099;32;20093;-78
2022/01/22 00:07:04;;;;;;;7.62;2.15;;;;;;;3.17;51.74;98580.06;4409981;32;20112;-78
2022/01/22 00:09:52;;;;;;;7.50;2.10;;;;;;;2.90;52.50;98569.16;4410419;32;20086;-78
2022/01/22 00:15:14;;;;;;;6.00;1.80;;;;;;;2.49;53.19;98554.00;4392071;32;20112;-78
2022/01/22 00:17:41;;;;;;;6.75;1.98;;;;;;;2.69;52.96;98553.94;4410316;32;20111;-78
2022/01/22 00:20:10;;;;;;;3.92;1.75;;;;;;;2.21;53.74;98540.47;4409898;32;20106;-78
2022/01/22 00:22:38;;;;;;;3.95;1.62;;;;;;;2.62;52.41;98537.81;4410308;32;20149;-78
2022/01/22 00:25:09;;;;;;;3.95;1.77;;;;;;;2.86;51.88;98533.47;4410037;32;20098;-78
2022/01/22 00:27:38;;;;;;;3.17;1.45;;;;;;;2.76;52.07;98535.22;4410002;32;20523;-78
2022/01/22 00:30:07;;;;;;;4.72;1.73;;;;;;;2.80;51.90;98525.88;4410269;32;20098;-78
2022/01/22 00:32:35;;;;;;;5.50;2.08;;;;;;;2.58;51.84;98525.94;4410050;32;20074;-78
2022/01/22 00:35:03;;;;;;;3.40;1.70;;;;;;;2.57;51.81;98498.78;4396124;32;20171;-78
2022/01/22 00:37:32;;;;;;;4.37;1.80;;;;;;;2.33;52.35;98499.69;4410151;32;20102;-78
2022/01/22 00:39:59;;;;;;;4.93;1.80;;;;;;;2.62;51.26;98496.22;4410156;32;20078;-78
2022/01/22 00:42:26;;;;;;;4.82;1.90;;;;;;;2.78;50.88;98491.91;4409673;32;20217;-78
2022/01/22 00:44:53;;;;;;;;;;;;;;;2.93;50.08;98488.44;4410364;32;20098;-78
2022/01/22 00:47:22;;;;;;;5.32;1.52;;;;;;;3.23;49.77;98482.31;4410167;32;20028;-78
2022/01/22 00:49:52;;;;;;;3.33;1.62;;;;;;;3.38;49.03;98469.44;4409599;32;20094;-78
2022/01/22 00:52:19;;;;;;;4.65;1.80;;;;;;;3.02;50.32;98473.94;4410047;32;20440;-78
2022/01/22 00:54:46;;;;;;;5.18;1.55;;;;;;;2.89;50.83;98473.16;4409878;32;20467;-78
2022/01/22 00:57:14;;;;;;;4.85;1.90;;;;;;;2.79;51.52;98473.22;4409912;32;20102;-78
2022/01/22 00:59:41;;;;;;;4.93;2.03;;;;;;;2.88;51.55;98465.53;4409903;32;20152;-78
2022/01/22 01:02:07;;;;;;;6.28;1.80;;;;;;;2.60;52.51;98459.72;4409524;32;20470;-78
2022/01/22 01:04:37;;;;;;;9.75;2.17;;;;;;;3.07;51.49;98464.53;4409222;32;20128;-78
2022/01/22 01:07:05;;;;;;;3.37;1.50;;;;;;;3.12;50.98;98464.53;4409799;32;20177;-78
2022/01/22 01:09:34;;;;;;;5.22;1.75;;;;;;;2.98;51.15;98458.66;4409732;32;20120;-78
2022/01/22 01:12:05;;;;;;;6.53;1.75;;;;;;;3.09;50.89;98454.34;4409676;32;20401;-78
2022/01/22 01:14:41;;;;;;;4.55;1.75;;;;;;;3.05;50.96;98438.22;4409892;32;20098;-78
2022/01/22 01:17:22;;;;;;;4.80;1.77;;;;;;;2.55;52.27;98431.72;4409720;32;20106;-78
2022/01/22 01:32:11;;;;;;;6.97;1.98;;;;;;;3.02;53.19;98429.75;4409844;32;20102;-78
2022/01/22 01:34:00;;;;;;;5.00;1.60;;;;;;;2.40;52.46;98423.28;4409634;32;20109;-78
2022/01/22 01:36:27;;;;;;;5.25;2.00;;;;;;;2.21;53.56;98425.88;4409733;32;20133;-78
2022/01/22 01:38:58;;;;;;;7.60;2.37;;;;;;;2.70;52.60;98425.69;4409351;32;20481;-78
2022/01/22 01:41:41;;;;;;;4.60;1.85;;;;;;;2.94;52.46;98432.34;4409480;32;20154;-78
2022/01/22 01:44:11;;;;;;;5.47;1.92;;;;;;;2.82;53.64;98430.72;4409208;32;20125;-78
2022/01/22 01:46:50;;;;;;;6.47;2.00;;;;;;;3.01;53.61;98430.59;4409433;32;20108;-78
2022/01/22 01:49:17;;;;;;;5.50;2.00;;;;;;;3.13;53.50;98428.81;4409621;32;20160;-78
2022/01/22 01:51:44;;;;;;;7.00;1.80;;;;;;;2.67;54.76;98423.16;4409055;32;20089;-78
2022/01/22 01:59:45;;;;;;;4.73;1.83;;;;;;;2.97;53.63;98403.44;4409159;32;20608;-78
2022/01/22 02:02:13;;;;;;;7.15;2.00;;;;;;;3.25;52.42;98404.09;4409209;32;20181;-78
2022/01/22 02:04:42;;;;;;;6.22;2.15;;;;;;;2.81;53.46;98392.50;4409178;32;20149;-78
2022/01/22 02:07:10;;;;;;;7.30;2.17;;;;;;;2.65;54.16;98376.44;4408773;32;20576;-78
2022/01/22 02:09:38;;;;;;;4.75;1.90;;;;;;;3.10;52.81;98369.37;4409263;32;20153;-78
2022/01/22 02:25:56;;;;;;;4.90;1.67;;;;;;;2.71;51.49;98328.00;4410992;32;20078;-78
2022/01/22 02:28:23;;;;;;;6.25;1.77;;;;;;;2.45;51.83;98335.84;4397418;32;20110;-78
2022/01/22 02:31:01;;;;;;;3.42;1.12;;;;;;;2.55;50.84;98308.56;4410902;32;20112;-78
2022/01/22 02:36:16;;;;;;;;;;;;;;;2.47;51.71;98290.81;4411296;32;20104;-78
2022/01/22 02:38:54;;;;;;;4.30;1.35;;;;;;;1.91;53.02;98286.87;4411000;32;19982;-78
2022/01/22 02:41:23;;;;;;;4.85;1.55;;;;;;;1.88;53.07;98284.34;4410548;32;20471;-78
2022/01/22 02:43:53;;;;;;;2.42;1.10;;;;;;;1.83;53.46;98288.63;4410838;32;20141;-78
2022/01/22 02:46:25;;;;;;;4.85;1.73;;;;;;;1.78;53.76;98292.00;4410837;32;20146;-78
2022/01/22 02:48:56;;;;;;;3.30;1.40;;;;;;;1.89;53.79;98280.09;4410556;32;20093;-78
2022/01/22 02:51:24;;;;;;;4.43;1.42;;;;;;;1.78;53.91;98295.41;4410773;32;20448;-78
2022/01/22 02:53:55;;;;;;;5.20;1.48;;;;;;;1.67;53.22;98276.78;4410835;32;20090;-78
2022/01/22 02:56:24;;;;;;;8.15;1.98;;;;;;;1.65;53.34;98286.13;4410618;32;20091;-78
2022/01/22 02:58:56;;;;;;;3.92;1.55;;;;;;;1.70;52.72;98279.31;4410741;32;20118;-78
2022/01/22 03:01:23;;;;;;;4.20;1.40;;;;;;;1.71;52.85;98284.44;4410501;32;20334;-78
2022/01/22 03:03:50;;;;;;;2.50;1.30;;;;;;;1.61;53.14;98289.56;4410507;32;20161;-78
2022/01/22 03:06:17;;;;;;;;;;;;;;;1.76;53.08;98284.41;4410999;32;20145;-78
2022/01/22 03:08:46;;;;;;;3.55;1.30;;;;;;;1.82;53.11;98278.44;4410441;32;19987;-78
2022/01/22 03:11:24;;;;;;;3.20;1.30;;;;;;;2.00;51.94;98269.00;4410554;32;20150;-78
2022/01/22 03:19:05;;;;;;;2.53;0.98;;;;;;;2.35;49.96;98277.31;4410814;32;20158;-78
2022/01/22 03:21:40;;;;;;;;;;;;;;;2.52;49.47;98265.31;4410828;32;20107;-78
2022/01/22 03:29:40;;;;;;;5.10;1.33;;;;;;;3.02;49.72;98269.16;4410446;32;20110;-78
2022/01/22 03:32:11;;;;;;;2.78;1.35;;;;;;;3.45;48.23;98250.00;4410421;32;20097;-78
2022/01/22 03:34:44;;;;;;;3.47;1.00;;;;;;;3.11;48.47;98251.22;4410539;32;20161;-78
2022/01/22 03:37:11;;;;;;;2.50;1.27;;;;;;;2.66;49.80;98237.16;4410250;32;20504;-78
2022/01/22 03:39:38;;;;;;;3.40;1.20;;;;;;;2.66;51.34;98242.25;4410512;32;20112;-78
2022/01/22 03:42:05;;;;;;;;;;;;;;;2.55;53.88;98245.78;4410706;32;20154;-78
2022/01/22 03:44:31;;;;;;;6.85;1.48;;;;;;;2.64;56.54;98255.00;4410153;32;19977;-78
2022/01/22 03:46:58;;;;;;;;;;;;;;;2.09;60.97;98232.47;4410753;32;20425;-78
2022/01/22 03:49:25;;;;;;;2.05;1.17;;;;;;;2.47;60.84;98236.50;4410548;32;19974;-78
2022/01/22 03:51:52;;;;;;;;;;;;;;;2.08;62.86;98235.03;4410282;32;20132;-78
2022/01/22 03:54:19;;;;;;;5.50;1.62;;;;;;;2.01;64.02;98221.50;4410460;32;20276;-78
2022/01/22 03:56:47;;;;;;;;;;;;;;;2.31;63.37;98223.84;4410759;32;20383;-78
2022/01/22 03:59:14;;;;;;;;;;;;;;;1.97;64.33;98225.78;4410477;32;20341;-78
2022/01/22 04:04:29;;;;;;;4.70;1.70;;;;;;;2.15;65.18;98221.44;4409806;32;20093;-78
2022/01/22 04:09:45;;;;;;;3.42;1.25;;;;;;;2.08;68.01;98214.69;4410445;32;20102;-78
2022/01/22 04:12:15;;;;;;;6.30;1.80;;;;;;;1.94;69.71;98213.06;4409846;32;20101;-78
2022/01/22 04:14:56;;;;;;;4.30;1.75;;;;;;;1.91;71.66;98205.44;4410338;32;20086;-78
2022/01/22 04:17:40;;;;;;;4.75;1.52;;;;;;;1.57;73.81;98201.38;4410382;32;20145;-78
2022/01/22 04:25:46;;;;;;;11.63;4.95;;;;;;;1.41;77.20;98193.84;4410017;32;20101;-78
2022/01/22 04:28:12;;;;;;;8.95;3.53;;;;;;;1.69;76.77;98189.44;4410269;32;20537;-78
2022/01/22 04:30:39;;;;;;;;;;;;;;;1.76;76.40;98182.62;4410417;32;20457;-78
2022/01/22 04:33:06;;;;;;;8.70;2.58;;;;;;;1.51;77.65;98191.25;4396169;32;20003;-78
2022/01/22 04:35:36;;;;;;;;;;;;;;;1.31;79.29;98178.63;4410562;32;20140;-78
2022/01/22 04:38:07;;;;;;;5.10;2.15;;;;;;;1.46;78.93;98183.62;4410224;32;20041;-78
2022/01/22 04:40:34;;;;;;;8.93;2.40;;;;;;;1.34;79.90;98181.16;4409051;32;20470;-78
2022/01/22 04:43:03;;;;;;;3.60;1.55;;;;;;;1.49;78.87;98182.75;4410154;32;20195;-78
2022/01/22 04:48:27;;;;;;;5.60;1.98;;;;;;;1.96;76.79;98179.97;4409731;32;20460;-78
2022/01/22 04:56:25;;;;;;;5.57;1.20;;;;;;;1.65;79.09;98164.06;4410168;32;20173;-78
2022/01/22 04:58:55;;;;;;;;;;;;;;;1.57;80.01;98165.78;4410253;32;20152;-78
2022/01/22 05:01:22;;;;;;;5.35;1.02;;;;;;;1.45;80.84;98159.91;4409702;32;19982;-78
2022/01/22 05:03:49;;;;;;;4.35;1.90;;;;;;;1.75;80.17;98160.59;4409713;32;20105;-78
2022/01/22 05:06:16;;;;;;;;;;;;;;;1.75;79.66;98140.25;4410207;32;20174;-78
2022/01/22 05:08:43;;;;;;;2.50;1.08;;;;;;;2.19;78.14;98149.28;4409578;32;19977;-78
2022/01/22 05:11:09;;;;;;;;;;;;;;;2.45;77.09;98142.28;4410128;32;20098;-78
2022/01/22 05:13:39;;;;;;;3.37;1.25;;;;;;;2.31;76.95;98142.38;4409887;32;20049;-78
2022/01/22 05:16:09;;;;;;;6.57;1.45;;;;;;;2.39;77.74;98147.41;4409532;32;20081;-78
2022/01/22 05:18:43;;;;;;;3.72;1.30;;;;;;;2.43;76.80;98133.78;4410006;32;20082;-78
2022/01/22 05:21:14;;;;;;;5.35;1.40;;;;;;;3.31;73.19;98144.75;4409760;32;20445;-78
2022/01/22 05:23:45;;;;;;;4.25;1.90;;;;;;;2.98;74.65;98158.75;4409507;32;20102;-78
2022/01/22 05:26:54;;;;;;;3.22;1.15;;;;;;;2.60;76.11;98167.59;4409868;32;20156;-78
2022/01/22 05:36:58;;;;;;;3.60;0.70;;;;;;;3.14;75.30;98156.84;4409292;32;20081;-78
2022/01/22 05:39:29;;;;;;;1.65;0.75;;;;;;;2.98;75.96;98158.75;4409749;32;20148;-78
2022/01/22 05:42:00;;;;;;;1.23;0.62;;;;;;;2.82;76.82;98162.28;4409461;32;20409;-79
2022/01/22 05:44:29;;;;;;;1.08;0.60;;;;;;;2.98;76.40;98161.28;4395988;32;20385;-79
2022/01/22 05:47:02;;;;;;;1.23;0.75;;;;;;;3.41;74.12;98155.69;4409447;32;20094;-79
2022/01/22 05:49:32;;;;;;;0.90;0.62;;;;;;;3.19;74.47;98150.84;4409551;32;20100;-79
2022/01/22 05:52:02;;;;;;;2.17;0.85;;;;;;;2.81;76.53;98161.44;4409331;32;20114;-79
2022/01/22 05:59:42;;;;;;;1.08;0.73;;;;;;;3.28;75.65;98156.69;4409427;32;20401;-79
2022/01/22 06:02:14;;;;;;;2.60;0.95;;;;;;;2.93;76.95;98165.56;4409138;32;20517;-79
2022/01/22 06:04:41;;;;;;;2.05;0.70;;;;;;;3.07;76.52;98153.50;4408717;32;20105;-79
2022/01/22 06:07:10;;;;;;;1.65;0.60;;;;;;;2.95;77.33;98151.09;4409180;32;20164;-79
2022/01/22 06:09:51;;;;;;;0.68;0.57;;;;;;;2.62;78.95;98154.84;4409288;32;20082;-79
2022/01/22 06:12:32;;;;;;;1.20;0.45;;;;;;;2.49;79.54;98151.56;4409017;32;20474;-79
2022/01/22 06:15:00;;;;;;;0.30;0.30;;;;;;;3.03;77.58;98144.22;4409173;32;20086;-79
2022/01/22 06:17:29;;;;;;;;;;;;;;;3.34;75.94;98144.72;4409454;32;20093;-79
2022/01/22 06:19:56;;;;;;;0.30;0.30;;;;;;;3.35;75.75;98141.28;4408988;32;20033;-79
2022/01/22 06:22:23;;;;;;;;;;;;;;;3.02;76.48;98131.50;4409368;32;20150;-79
2022/01/22 06:24:50;;;;;;;1.60;0.93;;;;;;;2.60;78.88;98143.81;4408699;32;19982;-79
2022/01/22 06:27:16;;;;;;;;;;;;;;;2.77;78.72;98151.31;4409248;32;20149;-80
2022/01/22 06:29:43;;;;;;;0.57;0.50;;;;;;;2.63;79.25;98153.97;4409073;32;20256;-80
2022/01/22 06:32:10;;;;;;;;;;;;;;;2.71;79.01;98139.47;4408859;32;20113;-80
2022/01/22 06:34:39;;;;;;;0.85;0.60;;;;;;;2.72;79.00;98147.94;4408991;32;19988;-80
2022/01/22 06:37:06;;;;;;;0.93;0.55;;;;;;;2.93;77.83;98144.34;4408955;32;20517;-79
2022/01/22 06:42:25;;;;;;;4.00;1.77;;;;;;;3.00;77.72;98159.56;4408860;32;20415;-80
2022/01/22 06:44:52;;;;;;;1.23;0.70;;;;;;;3.62;75.05;98157.13;4408680;32;20106;-80
2022/01/22 06:47:19;;;;;;;2.12;0.77;;;;;;;3.60;74.41;98156.28;4408342;32;20085;-80
2022/01/22 06:49:46;;;;;;;;;;;;;;;3.19;76.23;98160.22;4408987;32;20134;-80
2022/01/22 06:52:16;;;;;;;1.33;0.82;;;;;;;3.63;74.71;98166.47;4408640;32;20030;-80
2022/01/22 06:54:47;;;;;;;0.68;0.52;;;;;;;3.63;74.74;98169.84;4408360;32;20128;-80
2022/01/22 06:57:14;;;;;;;2.15;0.77;;;;;;;3.79;74.23;98173.03;4408749;32;20090;-81
2022/01/22 06:59:41;;;;;;;1.90;1.02;;;;;;;4.08;72.51;98172.63;4408305;32;20078;-81
2022/01/22 07:02:13;;;;;;;4.60;1.17;;;;;;;4.21;71.75;98178.38;4408895;32;20109;-81
2022/01/22 07:04:40;;;;;;;2.50;1.10;;;;;;;4.24;71.79;98181.72;4410527;32;20109;-81
2022/01/22 07:07:12;;;;;;;;;;;;;;;4.13;71.86;98182.75;4410675;32;20116;-81
2022/01/22 07:09:39;;;;;;;0.85;0.68;;;;;;;4.50;70.63;98180.50;4410984;32;19984;-81
2022/01/22 07:12:07;;;;;;;2.08;0.80;;;;;;;4.13;72.21;98178.50;4410625;32;20155;-81
2022/01/22 07:14:34;;;;;;;0.77;0.68;;;;;;;4.20;71.94;98177.53;4410255;32;20153;-81
2022/01/22 07:17:01;;;;;;;3.25;1.15;;;;;;;3.94;73.04;98174.56;4410627;32;20134;-81
2022/01/22 07:19:29;;;;;;;;;;;;;;;4.05;72.17;98177.78;4411022;32;20074;-81
2022/01/22 07:22:06;;;;;;;8.82;2.45;;;;;;;3.88;73.08;98179.72;4410245;32;19982;-81
2022/01/22 07:24:37;;;;;;;10.63;2.65;;;;;;;4.18;71.72;98181.84;4410589;32;20098;-81
2022/01/22 07:27:04;;;;;;;4.32;1.25;;;;;;;4.29;71.27;98172.31;4410669;32;20077;-81
2022/01/22 07:29:31;;;;;;;3.80;1.12;;;;;;;4.70;70.10;98177.59;4410256;32;20459;-81
2022/01/22 07:32:01;;;;;;;9.00;2.08;;;;;;;5.03;68.19;98183.84;4396848;32;20158;-81
2022/01/22 07:34:28;;;;;;;10.52;2.33;;;;;;;4.76;69.16;98191.09;4410547;32;20114;-81
2022/01/22 07:36:56;;;;;;;9.68;2.40;;;;;;;4.59;70.21;98180.34;4410272;32;20465;-81
2022/01/22 07:39:22;;;;;;;10.30;2.60;;;;;;;4.88;68.56;98185.78;4397089;32;20137;-81
2022/01/22 07:41:52;;;;;;;;;;;;;;;4.82;68.80;98178.22;4410451;32;20137;-81
2022/01/22 07:44:19;;;;;;;7.95;2.35;;;;;;;4.76;69.30;98185.16;4410554;32;19989;-81
2022/01/22 07:46:46;;;;;;;9.07;2.72;;;;;;;4.61;68.88;98179.44;4410486;32;20425;-81
2022/01/22 07:49:19;;;;;;;5.72;1.90;;;;;;;4.21;71.44;98179.22;4410183;32;20569;-81
2022/01/22 07:51:46;;;;;;;8.50;1.95;;;;;;;4.37;71.08;98191.78;4397457;32;20094;-81
2022/01/22 07:54:16;;;;;;;2.70;1.00;;;;;;;4.29;71.21;98190.19;4410269;32;20146;-81
2022/01/22 07:56:47;;;;;;;2.75;1.20;;;;;;;4.39;70.91;98195.16;4410145;32;20161;-81
2022/01/22 07:59:14;;;;;;;2.25;1.12;;;;;;;4.26;71.65;98197.06;4410466;32;20082;-81
2022/01/22 08:01:41;;;;;;;2.35;1.10;;;;;;;4.63;69.50;98199.84;4410501;32;20509;-81
2022/01/22 08:04:08;;;;;;;2.72;1.23;;;;;;;4.46;70.50;98205.22;4409963;32;20113;-81
2022/01/22 08:06:35;;;;;;;;;;;;;;;4.88;68.93;98203.66;4410783;32;20180;-81
2022/01/22 08:09:05;;;;;;;4.37;1.27;;;;;;;4.29;70.23;98204.66;4410352;32;19961;-81
2022/01/22 08:11:32;;;;;;;2.85;1.08;;;;;;;4.58;69.27;98210.16;4409965;32;20102;-81
2022/01/22 08:14:02;;;;;;;2.80;0.93;;;;;;;4.46;69.96;98212.06;4395326;32;20489;-81
2022/01/22 08:16:31;;;;;;;1.58;0.55;;;;;;;5.15;68.04;98230.47;4410299;32;20146;-81
2022/01/22 08:18:58;;;;;;;2.70;0.95;;;;;;;4.57;70.07;98226.38;4410036;32;20136;-81
2022/01/22 08:21:27;;;;;;;1.80;0.80;;;;;;;5.07;68.62;98227.22;4410088;32;20577;-81
2022/01/22 08:23:55;;;;;;;0.88;0.60;;;;;;;5.40;67.31;98237.69;4409763;32;20156;-81
2022/01/22 08:26:26;;;;;;;2.15;1.00;;;;;;;5.37;66.42;98235.19;4410275;32;20161;-81
2022/01/22 08:28:53;;;;;;;2.17;0.80;;;;;;;6.03;65.47;98235.56;4410297;32;20128;-81
2022/01/22 08:31:37;;;;;;;1.48;0.90;;;;;;;5.46;66.73;98235.88;4409855;32;20149;-81
2022/01/22 08:36:54;;;;;;;2.08;1.23;;;;;;;5.05;69.20;98233.22;4398935;32;20173;-81
2022/01/22 08:39:21;;;;;;;2.00;1.02;;;;;;;5.43;67.75;98253.84;4410487;32;20130;-81
2022/01/22 08:41:53;;;;;;;1.95;1.08;;;;;;;5.89;66.13;98242.69;4397647;32;20106;-82
2022/01/22 08:44:20;;;;;;;2.37;1.00;;;;;;;5.47;68.10;98244.38;4398376;32;20106;-82
2022/01/22 08:46:47;;;;;;;1.95;0.90;;;;;;;4.93;70.78;98253.03;4411916;32;20137;-82
2022/01/22 08:49:14;;;;;;;4.20;1.60;;;;;;;5.05;70.66;98259.66;4412617;32;20066;-82
2022/01/22 08:51:41;;;;;;;2.30;1.27;;;;;;;4.33;74.66;98260.78;4412691;32;20121;-82
2022/01/22 08:54:10;;;;;;;1.75;0.93;;;;;;;4.62;72.50;98264.63;4412476;32;20169;-82
2022/01/22 08:56:39;;;;;;;3.92;1.25;;;;;;;4.73;73.15;98272.97;4412616;32;20164;-81
2022/01/22 08:59:11;;;;;;;2.05;1.27;;;;;;;4.33;73.92;98275.25;4412729;32;20566;-81
2022/01/22 09:01:40;;;;;;;2.95;1.30;;;;;;;3.81;76.95;98286.16;4400405;32;20118;-82
2022/01/22 09:04:07;;;;;;;1.75;1.10;;;;;;;3.45;78.20;98293.37;4413524;32;20102;-82
2022/01/22 09:06:33;;;;;;;;;;;;;;;3.05;79.52;98302.25;4414198;32;20145;-81
2022/01/22 09:09:18;;;;;;;3.62;1.40;;;;;;;3.87;77.15;98301.41;4415132;32;20021;-82
2022/01/22 09:11:49;;;;;;;2.47;1.52;;;;;;;3.21;77.45;98303.81;4417334;32;20146;-82
2022/01/22 09:14:17;;;;;;;4.65;1.60;;;;;;;2.99;79.22;98310.81;4416193;32;20109;-82
2022/01/22 09:16:46;;;;;;;2.90;1.37;;;;;;;2.87;80.30;98314.31;4415963;32;20098;-82
2022/01/22 09:19:14;;;;;;;2.45;1.25;;;;;;;4.02;74.61;98315.69;4416265;32;20075;-82
2022/01/22 09:21:46;;;;;;;2.83;1.30;;;;;;;4.17;73.67;98328.28;4415249;32;20062;-82
2022/01/22 09:24:17;;;;;;;3.55;1.23;;;;;;;4.01;74.97;98319.09;4415392;32;20157;-82
2022/01/22 09:26:46;;;;;;;2.97;1.40;;;;;;;4.71;72.50;98330.94;4415196;32;20109;-82
2022/01/22 09:29:15;;;;;;;2.95;1.30;;;;;;;4.93;69.52;98331.47;4415357;32;20116;-82
2022/01/22 09:31:46;;;;;;;3.83;1.70;;;;;;;5.17;69.50;98346.41;4415216;32;20114;-82
2022/01/22 09:34:13;;;;;;;3.10;1.52;;;;;;;3.90;73.29;98357.53;4414683;32;20734;-82
2022/01/22 09:36:40;;;;;;;3.03;1.58;;;;;;;3.86;73.22;98360.97;4415593;32;20154;-82
2022/01/22 09:39:07;;;;;;;4.25;1.85;;;;;;;3.57;74.01;98348.53;4415132;32;20161;-82
2022/01/22 09:41:35;;;;;;;4.28;1.65;;;;;;;4.78;70.29;98352.97;4414913;32;20138;-82
2022/01/22 09:44:22;;;;;;;;;;;;;;;5.21;67.70;98353.16;4414767;32;20065;-82
2022/01/22 09:46:50;;;;;;;3.30;1.70;;;;;;;5.98;65.24;98362.91;4414335;32;20327;-82
2022/01/22 09:49:17;;;;;;;5.05;1.73;;;;;;;6.78;61.14;98361.22;4413490;32;20080;-82
2022/01/22 09:51:45;;;;;;;3.03;1.60;;;;;;;6.74;60.71;98357.06;4413302;32;20160;-82
2022/01/22 09:54:13;;;;;;;3.53;1.70;;;;;;;6.40;60.72;98351.84;4414068;32;20102;-82
2022/01/22 09:56:41;;;;;;;2.95;1.60;;;;;;;5.79;63.71;98354.69;4414193;32;20098;-82
2022/01/22 09:59:13;;;;;;;3.08;1.58;;;;;;;5.43;64.21;98353.66;4414333;32;20054;-82
2022/01/22 10:01:40;;;;;;;2.95;1.58;;;;;;;5.08;65.36;98359.34;4413723;32;20132;-82
2022/01/22 10:04:10;;;;;;;5.28;1.73;;;;;;;5.67;63.08;98352.38;4413003;32;20086;-82
2022/01/22 10:06:53;;;;;;;4.15;1.70;;;;;;;5.94;63.17;98361.25;4412978;32;20099;-82
2022/01/22 10:09:27;;;;;;;3.72;1.70;;;;;;;7.72;56.01;98352.94;4412538;32;20097;-81
2022/01/22 10:12:14;;;;;;;4.75;1.95;;;;;;;6.88;57.59;98350.72;4413272;32;20106;-81
2022/01/22 10:15:04;;;;;;;3.33;1.85;;;;;;;7.08;57.00;98350.28;4399231;32;20119;-81
2022/01/22 10:17:54;;;;;;;5.00;1.67;;;;;;;7.26;56.28;98354.13;4412257;32;20065;-82
2022/01/22 10:20:20;;;;;;;1.83;1.20;;;;;;;8.47;51.66;98359.44;4413075;32;20089;-82
2022/01/22 10:22:55;;;;;;;;;;;;;;;7.19;54.96;98358.56;4412833;32;20090;-82
2022/01/22 10:25:30;;;;;;;4.57;1.87;;;;;;;7.18;55.63;98358.59;4412728;32;20039;-82
2022/01/22 10:28:02;;;;;;;3.97;2.00;;;;;;;6.79;56.35;98352.66;4413350;32;20073;-81
2022/01/22 10:30:38;;;;;;;3.85;1.60;;;;;;;7.50;54.18;98362.94;4412567;32;20153;-82
2022/01/22 10:33:35;;;;;;;3.25;1.48;;;;;;;6.84;54.52;98363.69;4413064;32;20471;-81
2022/01/22 10:36:20;;;;;;;4.45;2.00;;;;;;;6.25;55.94;98366.62;4412406;32;20090;-82
2022/01/22 10:38:48;;;;;;;;;;;;;;;7.28;53.39;98360.06;4399946;32;20180;-81
2022/01/22 10:41:17;;;;;;;3.85;1.60;;;;;;;7.19;52.98;98363.69;4413366;32;20009;-81
2022/01/22 10:43:55;;;;;;;4.60;1.87;;;;;;;7.16;52.03;98363.75;4412755;32;20146;-81
2022/01/22 10:49:00;;;;;;;3.58;1.27;;;;;;;7.17;52.71;98375.72;4411880;32;20082;-82
2022/01/22 10:51:29;;;;;;;4.37;1.73;;;;;;;7.33;51.07;98370.19;4411297;32;20521;-81
2022/01/22 10:54:00;;;;;;;3.60;1.70;;;;;;;5.96;55.92;98376.63;4411375;32;20177;-81
2022/01/22 10:56:29;;;;;;;4.70;1.70;;;;;;;6.23;55.93;98380.34;4411437;32;20098;-81
2022/01/22 10:59:06;;;;;;;4.12;1.48;;;;;;;6.26;55.54;98381.12;4411239;32;20144;-81
2022/01/22 11:01:52;;;;;;;4.65;1.77;;;;;;;5.09;58.26;98385.75;4411253;32;20495;-81
2022/01/22 11:04:40;;;;;;;4.60;1.92;;;;;;;5.19;57.46;98374.50;4410942;32;20113;-81
2022/01/22 11:07:09;;;;;;;2.93;1.50;;;;;;;5.31;56.49;98379.41;4410782;32;20173;-80
2022/01/22 11:09:56;;;;;;;3.92;1.70;;;;;;;4.57;59.97;98384.81;4410863;32;20594;-80
2022/01/22 11:12:26;;;;;;;2.90;1.42;;;;;;;5.56;57.21;98384.16;4410359;32;20074;-80
2022/01/22 11:14:53;;;;;;;3.97;1.70;;;;;;;4.86;58.63;98381.81;4410673;32;20116;-80
2022/01/22 11:17:22;;;;;;;4.82;1.85;;;;;;;4.36;61.68;98390.19;4410728;32;20436;-80
2022/01/22 11:19:50;;;;;;;4.10;1.70;;;;;;;5.12;60.29;98390.84;4410337;32;20151;-80
2022/01/22 11:22:18;;;;;;;5.75;2.22;;;;;;;5.27;58.72;98382.06;4396741;32;20365;-80
2022/01/22 11:24:47;;;;;;;7.25;2.12;;;;;;;5.41;57.56;98391.19;4410637;32;20161;-80
2022/01/22 11:27:21;;;;;;;4.22;1.98;;;;;;;5.02;57.62;98382.47;4410308;32;20108;-80
2022/01/22 11:29:53;;;;;;;5.43;2.22;;;;;;;5.19;57.36;98383.03;4410797;32;20078;-80
2022/01/22 11:32:23;;;;;;;5.10;2.10;;;;;;;5.22;57.06;98385.56;4410566;32;20100;-80
2022/01/22 11:34:51;;;;;;;5.32;2.15;;;;;;;4.25;59.95;98390.34;4410149;32;20116;-80
2022/01/22 11:37:24;;;;;;;5.50;1.90;;;;;;;4.33;60.45;98403.84;4396961;32;20583;-80
2022/01/22 11:40:11;;;;;;;6.75;2.15;;;;;;;3.75;62.13;98381.53;4396972;32;20107;-80
2022/01/22 11:42:56;;;;;;;6.28;1.90;;;;;;;3.88;61.13;98391.59;4410234;32;20078;-80
2022/01/22 11:45:31;;;;;;;4.60;2.00;;;;;;;4.53;58.16;98410.41;4410476;32;20165;-81
2022/01/22 11:48:15;;;;;;;2.58;1.48;;;;;;;4.52;59.13;98398.50;4410119;32;20108;-81
2022/01/22 11:50:49;;;;;;;4.80;2.08;;;;;;;4.33;58.74;98393.63;4410403;32;20156;-80
2022/01/22 11:53:53;;;;;;;5.05;1.92;;;;;;;4.41;57.98;98396.09;4410516;32;20109;-81
2022/01/22 11:56:29;;;;;;;6.55;2.22;;;;;;;4.47;57.50;98403.69;4410121;32;20103;-81
2022/01/22 11:58:58;;;;;;;3.42;1.52;;;;;;;4.62;56.18;98408.59;4410454;32;20089;-80
2022/01/22 12:01:37;;;;;;;4.82;2.25;;;;;;;5.07;55.28;98411.34;4409980;32;20141;-81
2022/01/22 12:04:05;;;;;;;4.60;1.95;;;;;;;5.09;53.85;98417.28;4410176;32;20574;-81
2022/01/22 12:07:02;;;;;;;6.35;2.20;;;;;;;5.28;53.02;98425.53;4410410;32;20094;-81
2022/01/22 12:15:07;;;;;;;5.22;1.77;;;;;;;4.99;55.13;98428.50;4410173;32;20173;-81
2022/01/22 12:17:46;;;;;;;6.97;2.55;;;;;;;4.54;56.04;98420.59;4410063;32;20201;-81
2022/01/22 12:23:19;;;;;;;4.03;1.70;;;;;;;4.72;53.75;98414.41;4409963;32;20081;-81
2022/01/22 12:25:47;;;;;;;7.32;2.80;;;;;;;3.91;57.43;98433.25;4410351;32;20134;-80
2022/01/22 12:28:32;;;;;;;5.60;2.20;;;;;;;3.47;59.44;98433.66;4410300;32;20133;-81
2022/01/22 12:31:15;;;;;;;5.90;2.25;;;;;;;2.92;60.93;98451.91;4409864;32;20109;-80
2022/01/22 12:33:48;;;;;;;6.62;2.83;;;;;;;2.75;62.60;98440.94;4410219;32;20164;-80
2022/01/22 12:36:18;;;;;;;6.40;2.37;;;;;;;2.62;62.66;98458.00;4396650;32;20102;-81
2022/01/22 12:39:01;;;;;;;6.87;3.00;;;;;;;3.02;61.26;98452.69;4409905;32;20098;-80
2022/01/22 12:41:46;;;;;;;6.57;2.42;;;;;;;3.69;58.44;98455.56;4410011;32;20112;-81
2022/01/22 12:44:31;;;;;;;7.68;2.67;;;;;;;3.98;57.03;98450.19;4409810;32;20107;-81
2022/01/22 12:47:01;;;;;;;8.82;2.70;;;;;;;4.02;57.62;98458.66;4410191;32;20137;-81
2022/01/22 12:49:29;;;;;;;7.15;1.70;;;;;;;4.51;55.53;98461.53;4410006;32;20098;-80
2022/01/22 12:51:58;;;;;;;8.75;2.60;;;;;;;4.07;56.63;98477.34;4395921;32;20168;-80
2022/01/22 12:54:37;;;;;;;7.22;2.90;;;;;;;4.31;55.58;98477.09;4410158;32;20089;-81
2022/01/22 12:57:17;;;;;;;8.75;2.70;;;;;;;4.02;55.55;98482.50;4410046;32;20169;-80
2022/01/22 12:59:48;;;;;;;7.55;2.90;;;;;;;4.32;55.26;98495.81;4409184;32;20109;-80
2022/01/22 13:02:23;;;;;;;6.53;2.43;;;;;;;4.13;55.19;98491.75;4397256;32;20169;-80
2022/01/22 13:05:01;;;;;;;7.47;2.75;;;;;;;4.14;55.11;98485.78;4409500;32;20104;-80
2022/01/22 13:07:30;;;;;;;7.55;2.55;;;;;;;4.51;53.98;98488.81;4409992;32;20458;-80
2022/01/22 13:10:05;;;;;;;7.37;2.47;;;;;;;4.75;52.57;98483.41;4409909;32;20120;-80
2022/01/22 13:12:34;;;;;;;8.38;3.03;;;;;;;5.10;50.78;98477.81;4409597;32;20105;-80
2022/01/22 13:15:02;;;;;;;5.82;2.00;;;;;;;5.33;50.60;98499.69;4396188;32;20510;-80
2022/01/22 13:17:31;;;;;;;7.25;2.47;;;;;;;4.85;51.08;98491.78;4409918;32;20090;-80
2022/01/22 13:19:59;;;;;;;7.72;2.33;;;;;;;4.80;51.00;98511.47;4409280;32;20090;-80
2022/01/22 13:22:41;;;;;;;8.30;3.20;;;;;;;4.23;52.92;98496.75;4409766;32;20093;-80
2022/01/22 13:25:15;;;;;;;6.50;2.30;;;;;;;4.23;53.53;98519.75;4409856;32;20151;-80
2022/01/22 13:27:43;;;;;;;7.65;2.55;;;;;;;4.11;53.18;98522.41;4409390;32;20126;-80
2022/01/22 13:30:12;;;;;;;7.05;2.62;;;;;;;4.70;51.88;98523.53;4409566;32;20094;-80
2022/01/22 13:33:05;;;;;;;7.60;2.78;;;;;;;4.48;51.96;98525.47;4409528;32;20496;-80
2022/01/22 13:36:11;;;;;;;8.70;2.90;;;;;;;4.25;53.61;98530.81;4409786;32;20086;-80
2022/01/22 13:49:48;;;;;;;7.20;2.30;;;;;;;3.26;55.80;98546.03;4409506;32;20437;-80
2022/01/22 13:52:16;;;;;;;10.15;3.30;;;;;;;3.56;55.49;98561.16;4409423;32;20115;-80
2022/01/22 13:54:53;;;;;;;9.13;2.80;;;;;;;4.02;54.82;98581.22;4409104;32;20102;-80
2022/01/22 13:57:25;;;;;;;8.77;3.17;;;;;;;4.16;54.22;98584.53;4409511;32;20090;-80